Time;durP1;ratioP1;P1;durP2;ratioP2;P2;SDS_P1;SDS_P2;PMS_P1;PMS_P2;Temp;Humidity;BMP_temperature;BMP_pressure;BME280_temperature;BME280_humidity;BME280_pressure;Samples;Min_cycle;Max_cycle;Signal;HPM_P1;HPM_P2
2022/02/21 00:01:07;;;;;;;3.15;1.95;;;1.90;91.80;;;;;;5095053;28;20111;-79
2022/02/21 00:03:32;;;;;;;3.78;2.28;;;1.90;91.90;;;;;;5098000;28;20099;-81
2022/02/21 00:05:58;;;;;;;6.88;2.03;;;1.80;92.00;;;;;;5098834;28;20020;-80
2022/02/21 00:08:24;;;;;;;4.18;2.47;;;1.90;92.10;;;;;;5098883;28;20081;-81
2022/02/21 00:10:50;;;;;;;3.70;2.28;;;1.90;92.20;;;;;;5094293;28;20028;-80
2022/02/21 00:13:16;;;;;;;5.60;2.35;;;2.00;92.20;;;;;;5095515;28;20039;-82
2022/02/21 00:15:42;;;;;;;5.65;2.13;;;2.00;92.10;;;;;;5095345;28;20413;-80
2022/02/21 00:18:07;;;;;;;4.97;2.15;;;2.10;92.10;;;;;;5097564;28;20106;-84
2022/02/21 00:20:33;;;;;;;4.75;2.42;;;2.10;92.20;;;;;;5096108;28;20028;-83
2022/02/21 00:22:59;;;;;;;4.45;2.70;;;2.10;92.50;;;;;;5095778;28;20099;-83
2022/02/21 00:25:25;;;;;;;3.83;2.28;;;2.10;92.30;;;;;;5095395;28;20085;-83
2022/02/21 00:27:51;;;;;;;7.60;2.60;;;2.10;92.30;;;;;;5095795;28;20024;-82
2022/02/21 00:30:17;;;;;;;3.00;2.03;;;2.10;92.10;;;;;;5095810;28;20443;-83
2022/02/21 00:32:43;;;;;;;7.05;2.70;;;2.10;92.20;;;;;;5101337;28;20020;-80
2022/02/21 00:35:08;;;;;;;6.07;2.63;;;2.10;92.20;;;;;;5096371;28;20047;-82
2022/02/21 00:37:34;;;;;;;2.75;2.05;;;2.10;92.20;;;;;;5102159;28;20059;-81
2022/02/21 00:40:00;;;;;;;3.90;2.20;;;2.20;92.20;;;;;;5114663;28;20021;-81
2022/02/21 00:42:26;;;;;;;4.68;2.40;;;2.20;92.50;;;;;;5095692;28;20370;-83
2022/02/21 00:44:56;;;;;;;4.60;2.33;;;2.20;92.20;;;;;;5096753;28;20024;-82
2022/02/21 00:47:27;;;;;;;3.08;2.15;;;2.20;92.20;;;;;;5095526;28;20093;-81
2022/02/21 00:49:54;;;;;;;5.72;1.90;;;2.20;92.20;;;;;;5095349;28;20024;-82
2022/02/21 00:52:20;;;;;;;5.57;2.50;;;2.20;92.10;;;;;;5094964;28;20024;-83
2022/02/21 00:54:46;;;;;;;7.10;2.28;;;2.20;92.10;;;;;;5108780;28;20027;-82
2022/02/21 00:57:12;;;;;;;4.63;2.60;;;2.20;92.20;;;;;;5115010;28;20507;-81
2022/02/21 00:59:38;;;;;;;7.05;2.30;;;2.20;92.10;;;;;;5113456;28;20024;-82
2022/02/21 01:02:04;;;;;;;6.30;1.83;;;2.20;92.20;;;;;;5115198;28;20435;-85
2022/02/21 01:04:30;;;;;;;8.77;2.85;;;2.20;92.20;;;;;;5116317;28;20028;-83
2022/02/21 01:06:56;;;;;;;4.07;2.22;;;2.20;92.20;;;;;;5112409;28;20040;-82
2022/02/21 01:09:22;;;;;;;5.47;2.55;;;2.20;92.20;;;;;;5107105;28;20396;-81
2022/02/21 01:11:51;;;;;;;5.75;2.70;;;2.20;92.20;;;;;;5115140;28;20024;-81
2022/02/21 01:14:17;;;;;;;6.03;2.55;;;2.10;92.20;;;;;;5095849;28;20020;-82
2022/02/21 01:16:43;;;;;;;4.85;2.17;;;2.10;92.30;;;;;;5094023;28;20097;-81
2022/02/21 01:19:09;;;;;;;4.20;2.60;;;2.10;92.30;;;;;;5094891;28;20016;-82
2022/02/21 01:21:35;;;;;;;9.07;2.92;;;2.10;92.30;;;;;;5096264;28;20434;-82
2022/02/21 01:24:01;;;;;;;4.65;2.33;;;2.10;92.30;;;;;;5096893;28;20026;-80
2022/02/21 01:26:27;;;;;;;6.45;2.72;;;2.10;92.40;;;;;;5093859;28;20078;-82
2022/02/21 01:28:53;;;;;;;3.88;2.35;;;2.10;92.40;;;;;;5093921;28;20133;-81
2022/02/21 01:31:19;;;;;;;4.00;2.28;;;2.10;92.40;;;;;;5095748;28;20035;-84
2022/02/21 01:33:45;;;;;;;5.00;2.30;;;2.10;92.50;;;;;;5111226;28;20512;-82
2022/02/21 01:36:11;;;;;;;4.72;2.10;;;2.10;92.50;;;;;;5102505;28;20127;-82
2022/02/21 01:38:37;;;;;;;7.28;2.85;;;2.10;92.50;;;;;;5092321;28;20055;-80
2022/02/21 01:41:04;;;;;;;5.65;3.10;;;2.00;92.60;;;;;;5093546;28;20068;-80
2022/02/21 01:43:30;;;;;;;5.63;2.60;;;2.00;92.60;;;;;;5093277;28;20103;-82
2022/02/21 01:45:56;;;;;;;4.88;2.30;;;2.00;92.60;;;;;;5094860;28;20542;-80
2022/02/21 01:48:22;;;;;;;4.45;2.67;;;2.00;92.70;;;;;;5101009;28;20016;-81
2022/02/21 01:50:48;;;;;;;5.47;2.53;;;2.00;92.70;;;;;;5093992;28;20173;-84
2022/02/21 01:53:13;;;;;;;4.70;3.13;;;2.00;92.70;;;;;;5094231;28;20118;-86
2022/02/21 01:55:40;;;;;;;5.50;2.47;;;2.00;92.80;;;;;;5100284;28;20504;-86
2022/02/21 01:58:06;;;;;;;3.63;2.30;;;2.00;92.80;;;;;;5102248;28;20102;-87
2022/02/21 02:00:32;;;;;;;7.32;2.78;;;2.00;92.80;;;;;;5103768;28;20442;-87
2022/02/21 02:02:59;;;;;;;9.43;2.65;;;2.00;92.80;;;;;;5104352;28;20028;-88
2022/02/21 02:05:26;;;;;;;5.95;2.25;;;2.00;92.90;;;;;;5111100;28;20105;-78
2022/02/21 02:07:55;;;;;;;6.07;2.90;;;2.00;92.90;;;;;;5107500;28;20036;-78
2022/02/21 02:10:21;;;;;;;6.15;2.90;;;2.00;92.90;;;;;;5118561;28;20016;-83
2022/02/21 02:12:47;;;;;;;3.72;2.63;;;2.00;92.90;;;;;;5103735;28;20030;-85
2022/02/21 02:15:18;;;;;;;4.90;3.05;;;2.00;92.90;;;;;;5105953;28;20028;-83
2022/02/21 02:17:45;;;;;;;8.73;3.10;;;2.00;93.00;;;;;;5094659;28;20088;-85
2022/02/21 02:20:12;;;;;;;5.30;2.95;;;2.00;93.00;;;;;;5096779;28;20380;-85
2022/02/21 02:22:38;;;;;;;3.80;2.45;;;2.00;93.00;;;;;;5100590;28;20491;-83
2022/02/21 02:25:04;;;;;;;4.30;2.55;;;2.00;93.00;;;;;;5099692;28;20028;-81
2022/02/21 02:27:30;;;;;;;5.93;3.10;;;2.00;93.00;;;;;;5100405;28;20031;-80
2022/02/21 02:29:59;;;;;;;5.93;2.45;;;1.90;93.00;;;;;;5110406;28;20024;-81
2022/02/21 02:32:25;;;;;;;4.03;2.85;;;1.80;93.10;;;;;;5094447;28;20076;-82
2022/02/21 02:34:52;;;;;;;4.43;2.70;;;1.70;93.20;;;;;;5093132;28;20103;-81
2022/02/21 02:37:22;;;;;;;6.90;3.15;;;1.70;93.30;;;;;;5093658;28;20035;-82
2022/02/21 02:39:48;;;;;;;5.55;2.90;;;1.70;93.40;;;;;;5094343;28;20068;-82
2022/02/21 02:42:14;;;;;;;6.72;2.83;;;1.70;93.40;;;;;;5092580;28;20036;-84
2022/02/21 02:44:41;;;;;;;5.55;2.95;;;1.60;93.40;;;;;;5090645;28;20020;-80
2022/02/21 02:47:09;;;;;;;9.18;3.03;;;1.60;93.60;;;;;;5091330;28;20116;-81
2022/02/21 02:49:35;;;;;;;;;;;1.60;93.70;;;;;;5094328;28;20035;-82
2022/02/21 02:52:03;;;;;;;3.10;2.40;;;1.60;93.70;;;;;;5094504;28;20263;-89
2022/02/21 02:54:29;;;;;;;6.38;3.00;;;1.60;93.70;;;;;;5094885;28;20028;-91
2022/02/21 02:56:55;;;;;;;6.43;3.45;;;1.60;93.80;;;;;;5098470;28;20499;-84
2022/02/21 02:59:24;;;;;;;7.05;2.65;;;1.70;93.90;;;;;;5117337;28;20044;-88
2022/02/21 03:01:50;;;;;;;5.07;2.65;;;1.70;93.80;;;;;;5125238;28;20028;-87
2022/02/21 03:04:16;;;;;;;10.52;3.70;;;1.80;93.80;;;;;;5131843;28;20031;-81
2022/02/21 03:06:42;;;;;;;8.57;3.00;;;1.80;93.70;;;;;;5117031;28;20028;-83
2022/02/21 03:09:08;;;;;;;7.13;2.60;;;1.80;93.70;;;;;;5119735;28;20030;-87
2022/02/21 03:11:33;;;;;;;7.00;3.28;;;1.80;93.70;;;;;;5108126;28;20024;-77
2022/02/21 03:13:59;;;;;;;7.65;2.92;;;1.90;93.70;;;;;;5100691;28;20021;-79
2022/02/21 03:16:26;;;;;;;4.47;2.88;;;1.90;93.70;;;;;;5100149;28;20050;-79
2022/02/21 03:18:52;;;;;;;7.47;3.33;;;1.90;93.60;;;;;;5096973;28;20423;-80
2022/02/21 03:21:18;;;;;;;5.30;2.88;;;2.00;93.50;;;;;;5100202;28;20028;-79
2022/02/21 03:23:44;;;;;;;7.65;3.45;;;2.00;93.50;;;;;;5094609;28;20099;-82
2022/02/21 03:26:10;;;;;;;6.20;3.53;;;2.00;93.40;;;;;;5091715;28;20034;-81
2022/02/21 03:28:35;;;;;;;5.43;2.92;;;2.00;93.40;;;;;;5092819;28;20510;-83
2022/02/21 03:31:01;;;;;;;6.20;3.15;;;2.00;93.40;;;;;;5092343;28;20028;-79
2022/02/21 03:33:27;;;;;;;4.50;2.85;;;2.10;93.30;;;;;;5091105;28;20031;-77
2022/02/21 03:35:53;;;;;;;3.75;2.78;;;2.10;93.30;;;;;;5100357;28;20034;-81
2022/02/21 03:38:19;;;;;;;7.55;3.40;;;2.10;93.20;;;;;;5112680;28;20085;-81
2022/02/21 03:40:44;;;;;;;10.70;3.33;;;2.10;93.50;;;;;;5113253;28;20020;-79
2022/02/21 03:43:10;;;;;;;7.63;3.42;;;2.10;93.20;;;;;;5114990;28;20081;-87
2022/02/21 03:45:36;;;;;;;8.55;2.80;;;2.10;93.20;;;;;;5120966;28;20055;-85
2022/02/21 03:48:03;;;;;;;4.97;2.90;;;2.10;93.10;;;;;;5111907;28;20024;-80
2022/02/21 03:50:28;;;;;;;4.03;2.70;;;2.10;93.20;;;;;;5094787;28;20057;-80
2022/02/21 03:52:54;;;;;;;9.63;4.15;;;2.10;93.20;;;;;;5094435;28;20043;-79
2022/02/21 03:55:20;;;;;;;4.72;3.03;;;2.20;93.20;;;;;;5092131;28;20024;-81
2022/02/21 03:57:47;;;;;;;5.13;3.60;;;2.20;93.20;;;;;;5107164;28;20105;-79
2022/02/21 04:00:15;;;;;;;8.98;3.65;;;2.20;93.10;;;;;;5116795;28;20031;-81
2022/02/21 04:02:41;;;;;;;4.95;2.88;;;2.10;93.00;;;;;;5116506;28;20027;-80
2022/02/21 04:05:08;;;;;;;6.25;3.00;;;2.10;93.10;;;;;;5115088;28;20434;-81
2022/02/21 04:07:34;;;;;;;7.27;3.97;;;2.20;93.10;;;;;;5115231;28;20031;-82
2022/02/21 04:10:00;;;;;;;6.55;3.35;;;2.10;93.00;;;;;;5117876;28;20294;-79
2022/02/21 04:12:26;;;;;;;7.35;3.30;;;2.10;93.10;;;;;;5101362;28;20039;-80
2022/02/21 04:14:51;;;;;;;6.47;3.13;;;2.10;93.10;;;;;;5095905;28;20020;-81
2022/02/21 04:17:17;;;;;;;8.48;3.97;;;2.00;93.00;;;;;;5106281;28;20055;-81
2022/02/21 04:19:46;;;;;;;6.32;3.30;;;2.00;93.10;;;;;;5108707;28;20042;-80
2022/02/21 04:22:14;;;;;;;14.35;4.20;;;1.90;93.20;;;;;;5097832;28;20032;-81
2022/02/21 04:24:40;;;;;;;9.15;4.03;;;1.90;93.20;;;;;;5095996;28;20385;-81
2022/02/21 04:27:07;;;;;;;11.97;3.23;;;1.80;93.30;;;;;;5095535;28;20027;-82
2022/02/21 04:29:33;;;;;;;6.65;3.70;;;1.80;93.40;;;;;;5094902;28;20016;-81
2022/02/21 04:31:59;;;;;;;7.63;3.45;;;1.80;93.60;;;;;;5096563;28;20034;-82
2022/02/21 04:34:25;;;;;;;5.05;3.22;;;1.80;93.60;;;;;;5095838;28;20107;-81
2022/02/21 04:36:51;;;;;;;8.38;3.42;;;1.80;93.60;;;;;;5096536;28;20039;-80
2022/02/21 04:39:16;;;;;;;9.38;3.90;;;1.90;93.60;;;;;;5095406;28;20016;-82
2022/02/21 04:41:42;;;;;;;6.85;2.92;;;1.80;93.60;;;;;;5096552;28;20024;-82
2022/02/21 04:44:08;;;;;;;8.23;3.17;;;1.70;93.80;;;;;;5097907;28;20090;-82
2022/02/21 04:46:34;;;;;;;8.27;3.08;;;1.60;94.00;;;;;;5101686;28;20020;-82
2022/02/21 04:49:00;;;;;;;10.27;4.05;;;1.60;94.20;;;;;;5102374;28;20038;-84
2022/02/21 04:51:27;;;;;;;5.10;3.88;;;1.60;94.30;;;;;;5096180;28;20024;-82
2022/02/21 04:53:52;;;;;;;11.32;3.97;;;1.50;94.40;;;;;;5099628;28;20024;-82
2022/02/21 04:56:18;;;;;;;5.97;3.25;;;1.50;94.50;;;;;;5097265;28;20388;-83
2022/02/21 04:58:44;;;;;;;15.95;5.03;;;1.50;94.50;;;;;;5100679;28;20085;-82
2022/02/21 05:01:10;;;;;;;9.93;5.80;;;1.50;94.70;;;;;;5108508;28;20046;-82
2022/02/21 05:03:36;;;;;;;7.00;3.60;;;1.40;94.90;;;;;;5109237;28;20036;-82
2022/02/21 05:06:01;;;;;;;10.30;4.40;;;1.40;95.10;;;;;;5095260;28;20016;-83
2022/02/21 05:08:29;;;;;;;12.02;4.72;;;1.50;95.20;;;;;;5095579;28;20150;-84
2022/02/21 05:10:56;;;;;;;8.68;4.57;;;1.50;95.20;;;;;;5092565;28;20111;-84
2022/02/21 05:13:23;;;;;;;7.18;4.22;;;1.60;95.20;;;;;;5095544;28;20024;-82
2022/02/21 05:15:49;;;;;;;5.50;4.60;;;1.70;95.10;;;;;;5093610;28;20048;-84
2022/02/21 05:18:15;;;;;;;7.07;4.47;;;1.70;95.10;;;;;;5095668;28;20042;-83
2022/02/21 05:20:41;;;;;;;6.78;3.97;;;1.70;95.20;;;;;;5097028;28;20020;-84
2022/02/21 05:23:06;;;;;;;9.35;5.53;;;1.80;95.10;;;;;;5096109;28;20085;-84
2022/02/21 05:25:32;;;;;;;7.75;5.07;;;1.80;95.10;;;;;;5097397;28;20085;-84
2022/02/21 05:27:58;;;;;;;8.85;3.75;;;1.70;95.30;;;;;;5111941;28;20004;-84
2022/02/21 05:30:24;;;;;;;7.20;4.05;;;1.80;95.40;;;;;;5112940;28;20040;-82
2022/02/21 05:32:50;;;;;;;6.35;4.05;;;1.80;95.70;;;;;;5096342;28;20048;-85
2022/02/21 05:35:15;;;;;;;7.05;4.13;;;1.80;95.40;;;;;;5099352;28;20027;-84
2022/02/21 05:37:41;;;;;;;5.55;4.47;;;1.80;95.40;;;;;;5115143;28;20702;-84
2022/02/21 05:40:08;;;;;;;7.78;5.07;;;1.80;95.40;;;;;;5114161;28;20030;-84
2022/02/21 05:42:34;;;;;;;6.70;4.95;;;1.80;95.50;;;;;;5114765;27;20062;-84
2022/02/21 05:44:59;;;;;;;9.02;5.28;;;1.70;95.50;;;;;;5113410;28;20433;-84
2022/02/21 05:47:25;;;;;;;7.10;4.38;;;1.70;95.50;;;;;;5114998;28;20114;-83
2022/02/21 05:49:51;;;;;;;7.38;4.93;;;1.70;95.70;;;;;;5115964;28;20381;-84
2022/02/21 05:52:17;;;;;;;8.15;4.53;;;1.70;95.80;;;;;;5116842;28;20028;-87
2022/02/21 05:54:42;;;;;;;8.23;4.20;;;1.60;95.80;;;;;;5122940;28;20034;-81
2022/02/21 05:57:08;;;;;;;9.85;5.18;;;1.50;95.90;;;;;;5117506;28;20426;-84
2022/02/21 05:59:34;;;;;;;9.27;5.88;;;1.50;96.20;;;;;;5110343;28;20020;-84
2022/02/21 06:02:00;;;;;;;6.82;5.13;;;1.60;96.20;;;;;;5093924;28;20069;-82
2022/02/21 06:04:26;;;;;;;9.73;5.47;;;1.60;96.20;;;;;;5095137;28;20031;-83
2022/02/21 06:06:52;;;;;;;9.73;5.18;;;1.70;96.30;;;;;;5096142;28;20544;-83
2022/02/21 06:09:18;;;;;;;6.35;4.60;;;1.80;96.30;;;;;;5107122;28;20063;-85
2022/02/21 06:11:44;;;;;;;10.98;4.32;;;1.80;96.10;;;;;;5106529;28;20032;-84
2022/02/21 06:14:09;;;;;;;6.55;4.55;;;1.90;96.00;;;;;;5096597;28;20499;-81
2022/02/21 06:16:35;;;;;;;6.68;4.43;;;1.90;95.80;;;;;;5096902;28;20063;-84
2022/02/21 06:19:01;;;;;;;9.48;5.30;;;1.90;95.70;;;;;;5093683;28;20060;-85
2022/02/21 06:21:28;;;;;;;6.07;4.93;;;2.00;95.60;;;;;;5093874;28;20028;-82
2022/02/21 06:23:54;;;;;;;9.10;6.15;;;2.00;95.50;;;;;;5094308;28;20016;-86
2022/02/21 06:26:20;;;;;;;7.78;4.85;;;2.00;95.40;;;;;;5093542;28;20477;-85
2022/02/21 06:28:46;;;;;;;6.15;4.15;;;2.10;95.30;;;;;;5092131;28;20020;-85
2022/02/21 06:31:12;;;;;;;9.38;5.03;;;2.20;95.20;;;;;;5094270;28;20032;-87
2022/02/21 06:33:39;;;;;;;8.55;5.78;;;2.20;95.00;;;;;;5093213;28;20481;-83
2022/02/21 06:36:06;;;;;;;6.97;4.07;;;2.20;95.00;;;;;;5098502;28;20104;-84
2022/02/21 06:38:32;;;;;;;8.68;5.15;;;2.20;95.00;;;;;;5092412;28;20043;-83
2022/02/21 06:40:58;;;;;;;8.68;5.95;;;2.20;94.90;;;;;;5101461;28;20035;-85
2022/02/21 06:43:24;;;;;;;9.20;5.32;;;2.20;94.80;;;;;;5102094;28;20035;-85
2022/02/21 06:45:51;;;;;;;8.75;4.30;;;2.20;94.80;;;;;;5093312;28;20028;-85
2022/02/21 06:48:16;;;;;;;10.07;4.53;;;2.30;94.90;;;;;;5094603;28;20028;-85
2022/02/21 06:50:42;;;;;;;8.40;4.85;;;2.30;94.80;;;;;;5097653;28;20028;-83
2022/02/21 06:53:09;;;;;;;5.95;4.10;;;2.40;94.70;;;;;;5100825;28;20035;-81
2022/02/21 06:55:34;;;;;;;7.45;4.68;;;2.40;94.30;;;;;;5105865;28;20052;-83
2022/02/21 06:58:00;;;;;;;10.80;4.82;;;2.30;94.50;;;;;;5096682;28;20074;-84
2022/02/21 07:00:26;;;;;;;8.68;5.63;;;2.30;94.40;;;;;;5112082;28;20487;-82
2022/02/21 07:02:52;;;;;;;7.80;4.75;;;2.30;94.30;;;;;;5107243;28;20028;-84
2022/02/21 07:05:18;;;;;;;8.13;4.68;;;2.40;94.40;;;;;;5095875;28;20031;-83
2022/02/21 07:07:44;;;;;;;7.18;5.13;;;2.50;94.40;;;;;;5098030;28;20035;-84
2022/02/21 07:10:10;;;;;;;8.80;5.07;;;2.60;94.10;;;;;;5104487;28;20412;-83
2022/02/21 07:12:36;;;;;;;9.98;5.35;;;2.90;94.10;;;;;;5097813;28;20392;-82
2022/02/21 07:15:04;;;;;;;8.13;4.32;;;3.00;93.80;;;;;;5103628;28;20099;-83
2022/02/21 07:17:40;;;;;;;6.80;5.10;;;3.10;93.40;;;;;;5100585;28;20109;-86
2022/02/21 07:20:08;;;;;;;7.30;4.75;;;3.00;93.30;;;;;;5092675;28;20028;-84
2022/02/21 07:22:34;;;;;;;8.52;5.05;;;2.90;93.00;;;;;;5092838;28;20020;-82
2022/02/21 07:25:00;;;;;;;10.43;4.60;;;2.90;93.00;;;;;;5092363;28;20020;-83
2022/02/21 07:27:25;;;;;;;6.72;5.10;;;2.90;93.10;;;;;;5092074;28;20039;-83
2022/02/21 07:29:51;;;;;;;8.18;5.38;;;3.00;93.20;;;;;;5092334;28;20024;-84
2022/02/21 07:32:17;;;;;;;4.82;4.13;;;3.00;93.00;;;;;;5094417;28;20024;-82
2022/02/21 07:34:43;;;;;;;6.78;5.10;;;3.10;92.90;;;;;;5106398;28;20361;-80
2022/02/21 07:37:09;;;;;;;8.95;4.88;;;3.00;92.80;;;;;;5103933;28;20489;-80
2022/02/21 07:39:35;;;;;;;7.80;6.07;;;3.00;92.40;;;;;;5097116;28;20024;-78
2022/02/21 07:42:01;;;;;;;10.45;5.00;;;3.00;92.60;;;;;;5114923;28;20256;-81
2022/02/21 07:44:27;;;;;;;7.95;4.90;;;3.20;92.80;;;;;;5117441;28;20020;-84
2022/02/21 07:46:53;;;;;;;6.32;4.15;;;3.30;92.80;;;;;;5103100;27;20032;-79
2022/02/21 07:49:20;;;;;;;8.45;4.38;;;3.60;92.00;;;;;;5093971;28;20063;-78
2022/02/21 07:51:48;;;;;;;6.97;4.72;;;3.70;91.90;;;;;;5093880;28;20044;-80
2022/02/21 07:54:14;;;;;;;10.20;4.93;;;3.90;91.50;;;;;;5098511;28;20037;-81
2022/02/21 07:56:40;;;;;;;7.63;4.90;;;3.80;91.00;;;;;;5096451;28;20035;-82
2022/02/21 07:59:06;;;;;;;6.57;4.50;;;3.90;91.10;;;;;;5099352;28;20091;-79
2022/02/21 08:01:31;;;;;;;7.68;4.75;;;4.00;91.00;;;;;;5108983;28;20036;-79
2022/02/21 08:03:57;;;;;;;7.38;4.68;;;4.10;90.60;;;;;;5115855;28;20157;-80
2022/02/21 08:06:23;;;;;;;8.52;5.32;;;4.00;90.20;;;;;;5116628;28;20035;-82
2022/02/21 08:08:49;;;;;;;9.38;4.90;;;4.00;90.30;;;;;;5104578;28;20073;-83
2022/02/21 08:11:14;;;;;;;9.50;4.97;;;3.90;90.40;;;;;;5106686;28;20434;-81
2022/02/21 08:13:40;;;;;;;7.15;4.60;;;4.00;90.50;;;;;;5127428;28;20016;-81
2022/02/21 08:16:06;;;;;;;11.73;5.93;;;4.00;90.30;;;;;;5132994;28;20099;-81
2022/02/21 08:18:33;;;;;;;8.77;5.55;;;4.00;90.00;;;;;;5129455;28;20024;-83
2022/02/21 08:20:59;;;;;;;8.23;6.68;;;3.80;90.10;;;;;;5100629;28;20074;-82
2022/02/21 08:23:25;;;;;;;8.13;4.45;;;3.90;90.40;;;;;;5103341;28;20035;-83
2022/02/21 08:25:51;;;;;;;6.13;4.05;;;4.00;90.40;;;;;;5100104;28;20031;-80
2022/02/21 08:28:16;;;;;;;6.63;3.88;;;4.00;90.10;;;;;;5093827;28;20130;-82
2022/02/21 08:30:42;;;;;;;6.68;4.70;;;3.90;90.10;;;;;;5095363;28;20024;-82
2022/02/21 08:33:08;;;;;;;8.57;4.85;;;3.90;90.10;;;;;;5094991;28;20035;-83
2022/02/21 08:35:34;;;;;;;8.65;5.25;;;3.80;90.00;;;;;;5094783;28;20031;-80
2022/02/21 08:38:02;;;;;;;9.35;4.90;;;3.70;90.00;;;;;;5095789;28;20032;-82
2022/02/21 08:40:28;;;;;;;7.47;4.65;;;3.70;90.20;;;;;;5096695;28;20016;-81
2022/02/21 08:42:53;;;;;;;9.98;5.70;;;3.70;90.40;;;;;;5094986;28;20085;-83
2022/02/21 08:45:19;;;;;;;8.88;4.68;;;3.70;90.40;;;;;;5094998;28;20016;-83
2022/02/21 08:47:45;;;;;;;7.05;5.38;;;3.70;90.50;;;;;;5095526;28;20066;-81
2022/02/21 08:50:11;;;;;;;8.02;4.80;;;3.70;90.30;;;;;;5094871;28;20488;-81
2022/02/21 08:52:42;;;;;;;8.20;5.28;;;3.70;90.40;;;;;;5095845;28;20381;-83
2022/02/21 08:55:15;;;;;;;8.60;5.03;;;3.80;90.60;;;;;;5095022;28;20069;-82
2022/02/21 08:57:41;;;;;;;7.07;4.28;;;3.80;90.40;;;;;;5095133;28;20043;-83
2022/02/21 09:00:09;;;;;;;11.25;5.55;;;3.70;90.10;;;;;;5094889;28;20027;-84
2022/02/21 09:02:35;;;;;;;8.68;5.53;;;3.70;90.30;;;;;;5094736;28;20030;-85
2022/02/21 09:05:01;;;;;;;8.13;4.68;;;3.70;90.30;;;;;;5094749;28;20048;-84
2022/02/21 09:07:27;;;;;;;6.10;4.32;;;3.80;90.20;;;;;;5095843;28;20028;-84
2022/02/21 09:09:53;;;;;;;10.77;5.90;;;3.90;89.90;;;;;;5095647;28;20470;-85
2022/02/21 09:12:19;;;;;;;8.50;5.40;;;3.90;89.60;;;;;;5095261;28;20024;-85
2022/02/21 09:14:47;;;;;;;6.97;4.68;;;4.00;89.00;;;;;;5095045;28;20024;-83
2022/02/21 09:17:14;;;;;;;6.85;4.40;;;4.00;89.30;;;;;;5094873;28;20043;-84
2022/02/21 09:19:40;;;;;;;8.43;3.93;;;4.10;88.90;;;;;;5095782;28;20020;-84
2022/02/21 09:22:06;;;;;;;6.03;3.70;;;4.10;88.50;;;;;;5095247;28;20679;-86
2022/02/21 09:24:32;;;;;;;9.60;6.15;;;4.10;87.90;;;;;;5095339;28;20020;-85
2022/02/21 09:26:58;;;;;;;8.43;4.97;;;4.20;87.90;;;;;;5101318;28;20036;-83
2022/02/21 09:29:24;;;;;;;9.53;4.57;;;4.30;87.30;;;;;;5097877;28;20020;-84
2022/02/21 09:31:52;;;;;;;7.88;4.97;;;4.30;86.20;;;;;;5095412;28;20031;-83
2022/02/21 09:34:18;;;;;;;8.50;5.45;;;4.30;85.90;;;;;;5094204;28;20447;-85
2022/02/21 09:36:45;;;;;;;8.93;5.80;;;4.40;86.00;;;;;;5101793;28;20066;-82
2022/02/21 09:39:11;;;;;;;6.03;4.57;;;4.60;85.90;;;;;;5115594;28;20039;-83
2022/02/21 09:41:36;;;;;;;9.02;4.75;;;4.60;85.50;;;;;;5115133;28;20853;-84
2022/02/21 09:44:02;;;;;;;7.15;5.40;;;4.60;84.80;;;;;;5117907;27;20103;-85
2022/02/21 09:46:32;;;;;;;8.57;5.35;;;4.60;84.30;;;;;;5132508;28;20079;-83
2022/02/21 09:48:59;;;;;;;7.38;5.15;;;4.60;84.40;;;;;;5107103;28;20023;-84
2022/02/21 09:51:25;;;;;;;7.63;4.93;;;4.70;84.60;;;;;;5102129;28;20115;-87
2022/02/21 09:53:51;;;;;;;5.45;4.13;;;5.00;84.90;;;;;;5108414;28;20035;-82
2022/02/21 09:56:17;;;;;;;4.55;3.30;;;6.20;84.40;;;;;;5096360;28;20032;-87
2022/02/21 09:58:43;;;;;;;8.48;4.80;;;7.30;79.30;;;;;;5094437;28;20039;-86
2022/02/21 10:01:09;;;;;;;7.60;5.28;;;8.10;75.90;;;;;;5094636;28;20016;-84
2022/02/21 10:03:37;;;;;;;7.18;4.82;;;8.50;73.10;;;;;;5094266;28;20088;-85
2022/02/21 10:06:24;;;;;;;6.53;3.88;;;8.30;71.80;;;;;;5093747;28;20362;-84
2022/02/21 10:09:00;;;;;;;10.52;4.57;;;7.60;72.10;;;;;;5092196;28;20119;-86
2022/02/21 10:11:29;;;;;;;8.55;4.65;;;7.10;73.10;;;;;;5093732;28;20449;-85
2022/02/21 10:14:01;;;;;;;8.73;5.55;;;6.70;74.00;;;;;;5093137;28;20032;-84
2022/02/21 10:16:46;;;;;;;8.30;4.65;;;6.60;74.80;;;;;;5093589;28;20605;-87
2022/02/21 10:19:20;;;;;;;8.60;4.60;;;6.50;74.80;;;;;;5108314;28;20031;-82
2022/02/21 10:22:12;;;;;;;7.13;5.07;;;6.40;75.20;;;;;;5112815;28;20476;-85
2022/02/21 10:24:41;;;;;;;6.75;5.13;;;7.40;76.00;;;;;;5095210;28;20028;-84
2022/02/21 10:27:18;;;;;;;8.07;5.68;;;8.10;72.70;;;;;;5093926;28;20031;-86
2022/02/21 10:29:51;;;;;;;;;;;8.00;71.00;;;;;;5095370;28;20035;-89
2022/02/21 10:32:24;;;;;;;7.53;4.70;;;7.60;72.20;;;;;;5093633;28;19931;-87
2022/02/21 10:34:51;;;;;;;10.20;5.15;;;7.30;72.40;;;;;;5093673;28;20028;-87
2022/02/21 10:37:22;;;;;;;8.55;4.80;;;7.00;72.50;;;;;;5094417;28;20090;-85
2022/02/21 10:39:48;;;;;;;7.60;4.80;;;6.90;72.80;;;;;;5092950;28;20056;-86
2022/02/21 10:42:25;;;;;;;6.82;5.15;;;6.60;73.30;;;;;;5093653;28;20603;-86
2022/02/21 10:44:51;;;;;;;7.78;4.93;;;6.30;73.90;;;;;;5098991;28;20040;-86
2022/02/21 10:47:19;;;;;;;7.43;4.35;;;5.90;74.70;;;;;;5094319;28;20031;-84
2022/02/21 10:49:54;;;;;;;14.48;9.77;;;5.80;75.30;;;;;;5096774;28;20039;-84
2022/02/21 10:52:25;;;;;;;9.77;5.72;;;5.60;75.80;;;;;;5105230;28;20023;-84
2022/02/21 10:54:52;;;;;;;6.57;4.30;;;5.50;76.20;;;;;;5115461;28;20019;-85
2022/02/21 10:57:19;;;;;;;6.85;4.88;;;5.40;76.30;;;;;;5105013;28;20131;-84
2022/02/21 10:59:47;;;;;;;6.03;4.05;;;5.40;76.60;;;;;;5095818;28;20020;-84
2022/02/21 11:02:17;;;;;;;7.97;4.53;;;5.50;76.50;;;;;;5091715;28;20108;-80
2022/02/21 11:04:44;;;;;;;7.20;4.53;;;5.30;77.10;;;;;;5092357;28;20082;-84
2022/02/21 11:07:12;;;;;;;6.22;5.13;;;5.30;77.10;;;;;;5091614;28;20025;-85
2022/02/21 11:09:38;;;;;;;;;;;5.20;77.30;;;;;;5100953;28;20024;-83
2022/02/21 11:12:05;;;;;;;9.70;5.10;;;5.20;77.80;;;;;;5096990;28;20321;-83
2022/02/21 11:14:33;;;;;;;6.55;3.92;;;5.00;78.10;;;;;;5103021;28;20275;-83
2022/02/21 11:17:02;;;;;;;8.13;4.07;;;4.90;78.00;;;;;;5119490;28;20039;-82
2022/02/21 11:19:28;;;;;;;8.93;4.93;;;4.80;78.30;;;;;;5097534;28;20114;-84
2022/02/21 11:21:54;;;;;;;5.80;3.85;;;4.80;78.20;;;;;;5095699;28;20027;-84
2022/02/21 11:24:26;;;;;;;7.63;4.93;;;4.80;77.70;;;;;;5095911;28;20061;-87
2022/02/21 11:27:10;;;;;;;6.07;4.82;;;4.70;78.70;;;;;;5097264;28;20396;-87
2022/02/21 11:30:10;;;;;;;7.88;5.13;;;4.80;79.10;;;;;;5096819;28;20068;-86
2022/02/21 11:32:40;;;;;;;8.55;5.95;;;4.70;78.90;;;;;;5095308;28;20104;-88
2022/02/21 11:35:18;;;;;;;9.80;6.47;;;4.70;79.20;;;;;;5098672;28;20039;-86
2022/02/21 11:37:45;;;;;;;7.78;5.63;;;4.70;79.90;;;;;;5097562;28;20032;-83
2022/02/21 11:40:13;;;;;;;9.95;5.85;;;4.70;79.70;;;;;;5098456;28;20043;-84
2022/02/21 11:42:39;;;;;;;;;;;4.70;79.80;;;;;;5109968;28;20024;-85
2022/02/21 11:45:24;;;;;;;7.55;5.97;;;4.80;80.00;;;;;;5098864;28;19930;-85
2022/02/21 11:47:52;;;;;;;7.38;3.85;;;4.90;79.70;;;;;;5108147;28;20027;-86
2022/02/21 11:50:19;;;;;;;7.63;5.38;;;5.00;79.20;;;;;;5100991;28;20028;-86
2022/02/21 11:52:49;;;;;;;12.02;4.53;;;4.80;78.90;;;;;;5119528;28;20022;-85
2022/02/21 11:55:32;;;;;;;11.20;6.15;;;4.60;79.40;;;;;;5111361;28;20016;-84
2022/02/21 11:57:59;;;;;;;16.27;5.57;;;4.60;80.70;;;;;;5108017;28;20036;-84
2022/02/21 12:00:31;;;;;;;;;;;4.70;79.90;;;;;;5117689;28;20024;-85
2022/02/21 12:03:15;;;;;;;10.57;3.65;;;4.70;79.50;;;;;;5115557;28;19903;-85
2022/02/21 12:05:46;;;;;;;6.05;4.03;;;4.60;79.40;;;;;;5116476;28;20024;-82
2022/02/21 12:08:29;;;;;;;7.85;5.85;;;4.40;79.60;;;;;;5104611;28;20381;-83
2022/02/21 12:11:04;;;;;;;13.00;8.93;;;4.30;80.50;;;;;;5095753;28;20505;-80
2022/02/21 12:13:31;;;;;;;16.83;10.27;;;4.50;80.70;;;;;;5094796;28;20020;-84
2022/02/21 12:16:09;;;;;;;11.02;6.20;;;4.60;80.50;;;;;;5095209;28;20728;-82
2022/02/21 12:18:46;;;;;;;11.40;6.25;;;4.70;80.00;;;;;;5094914;28;20115;-83
2022/02/21 12:21:19;;;;;;;13.27;6.88;;;4.70;79.80;;;;;;5114075;28;20070;-82
2022/02/21 12:23:59;;;;;;;10.48;4.82;;;4.70;79.90;;;;;;5116229;28;20055;-85
2022/02/21 12:26:27;;;;;;;5.03;3.75;;;4.70;80.00;;;;;;5116691;28;20031;-84
2022/02/21 12:29:15;;;;;;;8.38;5.53;;;4.60;79.40;;;;;;5115963;28;20085;-82
2022/02/21 12:31:43;;;;;;;11.13;5.07;;;4.40;80.00;;;;;;5114452;28;20092;-82
2022/02/21 12:34:10;;;;;;;6.75;4.95;;;4.40;80.10;;;;;;5114464;28;20037;-83
2022/02/21 12:36:43;;;;;;;8.95;5.25;;;4.40;80.70;;;;;;5105599;28;20042;-84
2022/02/21 12:39:11;;;;;;;4.93;4.43;;;4.40;80.80;;;;;;5095834;28;20028;-83
2022/02/21 12:41:41;;;;;;;8.60;5.70;;;4.30;81.00;;;;;;5097748;28;20020;-82
2022/02/21 12:44:10;;;;;;;9.80;5.70;;;4.30;81.00;;;;;;5098070;28;20050;-82
2022/02/21 12:46:43;;;;;;;10.40;5.93;;;4.30;81.30;;;;;;5094709;28;20020;-81
2022/02/21 12:49:24;;;;;;;10.57;7.20;;;4.40;81.60;;;;;;5093232;28;20020;-83
2022/02/21 12:51:58;;;;;;;10.70;5.93;;;4.50;81.40;;;;;;5096298;28;20093;-83
2022/02/21 12:54:24;;;;;;;11.25;5.57;;;4.60;81.00;;;;;;5093486;28;20529;-81
2022/02/21 12:56:58;;;;;;;7.15;5.25;;;4.40;80.30;;;;;;5094911;28;20028;-82
2022/02/21 12:59:26;;;;;;;7.57;5.20;;;4.20;80.10;;;;;;5093348;28;20078;-82